createdAt,value
2022-11-22T00:00:51.574Z,81.44
2022-11-22T00:05:56.116Z,80.61
2022-11-22T00:10:58.044Z,79.90
2022-11-22T00:16:01.162Z,79.74
2022-11-22T00:21:08.141Z,78.91
2022-11-22T00:26:12.288Z,79.06
2022-11-22T00:31:14.362Z,78.64
2022-11-22T00:36:17.663Z,78.63
2022-11-22T00:41:19.584Z,78.54
2022-11-22T00:46:21.638Z,79.14
2022-11-22T00:51:24.906Z,79.50
2022-11-22T00:56:26.820Z,79.81
2022-11-22T01:01:28.877Z,80.92
2022-11-22T01:06:32.409Z,81.65
2022-11-22T01:11:34.352Z,82.52
2022-11-22T01:16:36.281Z,83.27
2022-11-22T01:21:39.583Z,83.11
2022-11-22T01:26:41.504Z,81.29
2022-11-22T01:31:43.506Z,81.00
2022-11-22T01:36:46.884Z,82.56
2022-11-22T01:41:48.818Z,83.76
2022-11-22T01:46:54.620Z,84.37
2022-11-22T01:52:02.980Z,85.59
2022-11-22T01:57:08.235Z,86.40
2022-11-22T02:02:11.705Z,86.77
2022-11-22T02:07:20.368Z,86.46
2022-11-22T02:12:27.841Z,86.79
2022-11-22T02:17:29.814Z,86.94
2022-11-22T02:22:38.831Z,86.20
2022-11-22T02:27:42.250Z,83.20
2022-11-22T02:32:44.261Z,79.13
2022-11-22T02:37:49.342Z,76.11
2022-11-22T02:42:57.621Z,78.03
2022-11-22T02:48:05.459Z,78.76
2022-11-22T02:53:08.471Z,81.02
2022-11-22T02:58:11.760Z,82.39
2022-11-22T03:03:13.715Z,82.98
2022-11-22T03:08:15.651Z,84.29
2022-11-22T03:13:18.904Z,84.91
2022-11-22T03:18:21.156Z,86.03
2022-11-22T03:23:23.127Z,86.64
2022-11-22T03:28:26.588Z,86.92
2022-11-22T03:33:28.541Z,86.71
2022-11-22T03:38:30.885Z,86.16
2022-11-22T03:43:34.370Z,86.61
2022-11-22T03:48:36.262Z,85.27
2022-11-22T03:53:38.816Z,85.21
2022-11-22T03:58:42.084Z,84.71
2022-11-22T04:03:44.051Z,84.09
2022-11-22T04:08:46.071Z,82.36
2022-11-22T04:14:08.002Z,81.84
2022-11-22T04:19:10.191Z,81.49
2022-11-22T04:24:31.157Z,81.52
2022-11-22T04:29:34.439Z,81.84
2022-11-22T04:34:37.198Z,82.82
2022-11-22T04:39:39.117Z,84.29
2022-11-22T04:44:43.523Z,82.68
2022-11-22T04:49:45.444Z,83.83
2022-11-22T04:54:47.385Z,84.18
2022-11-22T04:59:50.648Z,85.04
2022-11-22T05:04:52.569Z,84.84
2022-11-22T05:09:54.566Z,84.57
2022-11-22T05:14:57.841Z,85.12
2022-11-22T05:20:00.125Z,85.03
2022-11-22T05:25:02.054Z,84.86
2022-11-22T05:30:07.204Z,85.12
2022-11-22T05:35:09.372Z,84.85
2022-11-22T05:40:12.696Z,84.29
2022-11-22T05:45:16.240Z,85.77
2022-11-22T05:50:18.385Z,84.86
2022-11-22T05:55:20.369Z,83.83
2022-11-22T06:00:23.760Z,84.10
2022-11-22T06:05:25.672Z,84.84
2022-11-22T06:10:27.672Z,82.96
2022-11-22T06:15:31.469Z,82.51
2022-11-22T06:20:33.392Z,81.26
2022-11-22T06:25:35.327Z,79.51
2022-11-22T06:30:38.600Z,78.50
2022-11-22T06:35:40.526Z,78.34
2022-11-22T06:40:42.456Z,77.55
2022-11-22T06:45:45.692Z,72.31
2022-11-22T06:50:47.626Z,74.30
2022-11-22T06:55:50.914Z,76.77
2022-11-22T07:01:00.196Z,71.02
2022-11-22T07:06:02.459Z,71.54
2022-11-22T07:11:06.439Z,67.96
2022-11-22T07:16:12.511Z,67.82
2022-11-22T07:21:16.824Z,64.06
2022-11-22T07:26:20.883Z,64.04
2022-11-22T07:31:24.480Z,62.37
2022-11-22T07:36:29.342Z,62.70
2022-11-22T07:41:31.298Z,63.45
2022-11-22T07:46:34.632Z,62.38
2022-11-22T07:51:36.549Z,65.62
2022-11-22T07:56:38.461Z,64.69
2022-11-22T08:01:41.819Z,66.42
2022-11-22T08:06:43.744Z,64.71
2022-11-22T08:11:45.646Z,65.91
2022-11-22T08:16:49.321Z,67.00
2022-11-22T08:21:56.955Z,66.27
2022-11-22T08:27:00.307Z,65.01
2022-11-22T08:32:03.962Z,65.68
2022-11-22T08:37:06.923Z,65.67
2022-11-22T08:42:08.906Z,65.54
2022-11-22T08:47:12.138Z,65.58
2022-11-22T08:52:14.237Z,66.08
2022-11-22T08:57:16.204Z,65.41
2022-11-22T09:02:19.508Z,66.36
2022-11-22T09:12:44.810Z,63.93
2022-11-22T09:17:48.106Z,64.04
2022-11-22T09:22:50.013Z,62.25
2022-11-22T09:27:51.961Z,62.67
2022-11-22T09:32:55.309Z,62.27
2022-11-22T09:37:57.227Z,61.71
2022-11-22T09:43:09.043Z,59.90
2022-11-22T09:48:29.355Z,59.81
2022-11-22T09:53:38.212Z,59.01
2022-11-22T09:58:47.535Z,58.68
2022-11-22T10:03:56.006Z,57.64
2022-11-22T10:09:10.777Z,57.64
2022-11-22T10:14:27.130Z,57.70
2022-11-22T10:19:37.588Z,57.68
2022-11-22T10:24:39.893Z,55.20
2022-11-22T10:29:49.478Z,56.29
2022-11-22T10:35:03.857Z,58.11
2022-11-22T10:40:14.321Z,52.71
2022-11-22T10:45:22.489Z,55.27
2022-11-22T10:50:34.264Z,52.63
2022-11-22T10:55:48.526Z,54.88
2022-11-22T11:00:56.962Z,54.80
2022-11-22T11:06:22.768Z,54.59
2022-11-22T11:11:30.367Z,54.09
2022-11-22T11:16:36.240Z,55.40
2022-11-22T11:21:39.522Z,57.58
2022-11-22T11:26:42.594Z,55.40
2022-11-22T11:31:46.045Z,54.79
2022-11-22T11:36:50.586Z,55.53
2022-11-22T11:41:52.539Z,54.83
2022-11-22T11:46:54.728Z,55.87
2022-11-22T11:52:01.323Z,57.09
2022-11-22T11:57:04.452Z,56.47
2022-11-22T12:02:11.712Z,55.10
2022-11-22T12:07:20.005Z,55.86
2022-11-22T12:12:37.788Z,59.41
2022-11-22T12:17:49.323Z,54.55
2022-11-22T12:23:02.910Z,54.48
2022-11-22T12:28:15.843Z,56.58
2022-11-22T12:33:24.662Z,59.33
2022-11-22T12:38:32.477Z,57.77
2022-11-22T12:43:39.935Z,56.65
2022-11-22T12:48:48.868Z,59.29
2022-11-22T12:53:57.579Z,59.92
2022-11-22T12:59:02.309Z,62.14
2022-11-22T13:04:14.837Z,62.47
2022-11-22T13:09:21.842Z,61.81
2022-11-22T13:14:30.503Z,60.47
2022-11-22T13:19:40.555Z,60.46
2022-11-22T13:25:00.375Z,59.64
2022-11-22T13:30:05.662Z,61.43
2022-11-22T13:35:25.049Z,61.62
2022-11-22T13:40:31.395Z,59.24
2022-11-22T13:45:46.423Z,63.69
2022-11-22T13:50:59.641Z,66.28
2022-11-22T13:56:39.075Z,67.96
2022-11-22T14:01:58.893Z,66.47
2022-11-22T14:07:04.807Z,65.51
2022-11-22T14:12:22.970Z,67.01
2022-11-22T14:17:38.644Z,68.54
2022-11-22T14:22:50.013Z,67.13
2022-11-22T14:28:01.434Z,69.18
2022-11-22T14:33:13.516Z,67.51
2022-11-22T14:38:31.578Z,67.14
2022-11-22T14:43:37.764Z,70.36
2022-11-22T14:48:49.471Z,71.41
2022-11-22T14:53:54.296Z,71.37
2022-11-22T14:59:08.952Z,70.88
2022-11-22T15:09:20.798Z,72.51
2022-11-22T15:10:24.801Z,74.17
2022-11-22T15:58:49.789Z,71.87
2022-11-22T16:03:54.692Z,67.99
2022-11-22T16:08:59.927Z,70.72
2022-11-22T16:14:02.036Z,66.31
2022-11-22T16:19:21.655Z,62.65
2022-11-22T16:24:28.977Z,68.82
2022-11-22T16:29:33.617Z,68.71
2022-11-22T16:34:35.923Z,72.64
2022-11-22T16:39:39.362Z,71.32
2022-11-22T16:44:41.348Z,69.43
2022-11-22T16:49:43.404Z,67.39
2022-11-22T16:54:46.744Z,69.94
2022-11-22T16:59:48.748Z,69.59
2022-11-22T17:04:50.728Z,72.10
2022-11-22T17:09:55.838Z,73.06
2022-11-22T17:14:57.829Z,73.59
2022-11-22T17:19:59.819Z,74.79
2022-11-22T17:25:03.335Z,72.74
2022-11-22T17:30:06.498Z,73.39
2022-11-22T17:35:09.496Z,74.59
2022-11-22T17:40:15.230Z,71.06
2022-11-22T17:45:17.397Z,71.02
2022-11-22T17:50:19.402Z,72.60
2022-11-22T17:55:23.110Z,71.42
2022-11-22T18:00:29.822Z,69.54
2022-11-22T18:05:34.254Z,69.65
2022-11-22T18:10:38.138Z,70.41
2022-11-22T18:15:40.248Z,71.94
2022-11-22T18:20:46.698Z,72.55
2022-11-22T18:25:50.126Z,73.43
2022-11-22T18:30:53.421Z,72.55
2022-11-22T18:35:59.789Z,72.51
2022-11-22T18:41:04.598Z,72.93
2022-11-22T18:46:06.558Z,73.45
2022-11-22T18:51:10.277Z,72.44
2022-11-22T18:56:14.179Z,72.81
2022-11-22T19:01:18.414Z,75.64
2022-11-22T19:06:20.467Z,76.51
2022-11-22T19:11:23.907Z,76.02
2022-11-22T19:16:29.522Z,72.94
2022-11-22T19:21:31.692Z,72.92
2022-11-22T19:26:37.304Z,74.38
2022-11-22T19:31:39.249Z,74.84
2022-11-22T19:36:41.455Z,73.96
2022-11-22T19:41:44.953Z,73.52
2022-11-22T19:46:46.982Z,72.84
2022-11-22T19:51:48.956Z,74.08
2022-11-22T19:56:52.236Z,75.42
2022-11-22T20:01:54.228Z,75.95
2022-11-22T20:06:56.343Z,76.85
2022-11-22T20:11:59.668Z,76.85
2022-11-22T20:17:01.631Z,75.88
2022-11-22T20:22:03.587Z,75.69
2022-11-22T20:27:06.965Z,76.06
2022-11-22T20:32:09.052Z,76.58
2022-11-22T20:37:11.008Z,76.46
2022-11-22T20:47:39.764Z,78.00
2022-11-22T20:52:41.720Z,79.73
2022-11-22T20:57:45.012Z,78.99
2022-11-22T21:02:46.912Z,79.44
2022-11-22T21:07:49.139Z,80.09
2022-11-22T21:12:53.546Z,80.78
2022-11-22T21:18:23.718Z,80.66
2022-11-22T21:23:18.291Z,80.50
2022-11-22T21:28:21.551Z,81.02
2022-11-22T21:33:23.781Z,81.61
2022-11-22T21:38:30.988Z,82.16
2022-11-22T21:43:35.108Z,83.17
2022-11-22T21:48:37.098Z,83.69
2022-11-22T21:53:39.049Z,83.69
2022-11-22T21:58:43.004Z,84.49
2022-11-22T22:03:44.929Z,84.69
2022-11-22T22:08:46.916Z,84.48
2022-11-22T22:13:52.572Z,82.48
2022-11-22T22:18:54.612Z,82.69
2022-11-22T22:23:56.670Z,83.86
2022-11-22T22:28:59.978Z,83.77
2022-11-22T22:34:01.949Z,82.21
2022-11-22T22:39:03.949Z,81.91
2022-11-22T22:44:07.500Z,83.32
2022-11-22T22:49:09.643Z,83.48
2022-11-22T22:54:11.606Z,82.66
2022-11-22T22:59:15.096Z,82.78
2022-11-22T23:04:17.050Z,82.90
2022-11-22T23:09:19.227Z,82.55
2022-11-22T23:14:24.503Z,83.06
2022-11-22T23:19:27.357Z,83.92
2022-11-22T23:24:30.812Z,84.40
2022-11-22T23:29:35.944Z,84.88
2022-11-22T23:34:37.939Z,84.57
2022-11-22T23:39:39.886Z,84.02
2022-11-22T23:44:43.131Z,83.87
2022-11-22T23:49:45.048Z,83.92
2022-11-22T23:54:46.984Z,84.97
2022-11-22T23:59:50.281Z,85.86
